Redwood City, CA (94065)

6:48 AM PDT on April 27, 2017 (GMT -0700)
Neighborhood 4 | | Change Station

Elev 7 ft 37.55 °N, 122.26 °W | Updated 8 seconds ago

Clear
Clear
52.0 °F
Feels Like 52.0 °F
N
1.0
Wind Variable Wind from WSW
Gusts 3.0 mph

Today
High -- | Low -- °F
--% Chance of Precip.
Yesterday
High -- | Low -- °F
Precip. -- in
Pressure 30.04 in
Visibility 10.0 miles
Clouds Clear
Dew Point 49 °F
Humidity 88%
Rainfall 0.00 in
Snow Depth Not available.
6:18 AM 7:55 PM
New Moon, 2% visible
METAR KSQL 271335Z AUTO 31009KT 10SM CLR 12/09 A3004 RMK AO2
Pressure 30.04 in
Visibility 10.0 miles
Clouds Clear
Dew Point 49 °F
Humidity 88%
Rainfall 0.00 in
Snow Depth Not available.
6:18 AM 7:55 PM
New Moon, 2% visible
METAR KSQL 271335Z AUTO 31009KT 10SM CLR 12/09 A3004 RMK AO2

Get Severe Weather Alerts

Thanks for signing up!

Be on the lookout for a verification email in your inbox.

You'll start receiving the daily forecast at 8 AM.

×

10-Day Weather Forecast

Almanac

Astronomy

Apr. 27, 2017 Rise Set
Actual Time
Civil Twilight
Nautical Twilight
Astronomical Twilight
Moon
Length of Visible Light
Length of Day
Tomorrow will be .
, % of the Moon is Illuminated

Today's Extremes

State Highs State Lows

Community

WunderPhotos

WunderBlog® & News

Nearby

Air Quality

  Air Quality AQ Index Pollutant
Not available.

Snow Depth

Station Depth Elevation

Earthquake Activity

City Distance Mag. Time & Date
Minimum magnitude displayed is 2.5.

Coastal Water Temperatures

Place Temperature

Stations

Nearby Weather Stations

Station Location Temp. Windchill Dew Point Humidity Wind Precip. Elev Updated Type
                   

Watches & Warnings

There are currently no watches in effect.